sensor_id;sensor_type;location;lat;lon;timestamp;temperature;humidity
36818;DHT22;22761;51.542;16.450;2022-08-21T00:00:46;21.19;79.95
36818;DHT22;22761;51.542;16.450;2022-08-21T00:03:13;21.17;79.70
36818;DHT22;22761;51.542;16.450;2022-08-21T00:05:45;21.15;80.00
36818;DHT22;22761;51.542;16.450;2022-08-21T00:08:13;21.15;79.94
36818;DHT22;22761;51.542;16.450;2022-08-21T00:10:41;21.12;79.46
36818;DHT22;22761;51.542;16.450;2022-08-21T00:13:10;21.07;79.36
36818;DHT22;22761;51.542;16.450;2022-08-21T00:15:40;21.02;79.67
36818;DHT22;22761;51.542;16.450;2022-08-21T00:18:09;21.01;79.73
36818;DHT22;22761;51.542;16.450;2022-08-21T00:20:37;20.95;79.83
36818;DHT22;22761;51.542;16.450;2022-08-21T00:23:05;20.95;79.84
36818;DHT22;22761;51.542;16.450;2022-08-21T00:25:32;20.94;79.94
36818;DHT22;22761;51.542;16.450;2022-08-21T00:27:59;20.95;80.27
36818;DHT22;22761;51.542;16.450;2022-08-21T00:30:29;20.94;80.35
36818;DHT22;22761;51.542;16.450;2022-08-21T00:32:57;20.94;79.48
36818;DHT22;22761;51.542;16.450;2022-08-21T00:35:32;20.91;79.33
36818;DHT22;22761;51.542;16.450;2022-08-21T00:38:00;20.85;79.97
36818;DHT22;22761;51.542;16.450;2022-08-21T00:40:41;20.85;80.11
36818;DHT22;22761;51.542;16.450;2022-08-21T00:43:05;20.84;79.87
36818;DHT22;22761;51.542;16.450;2022-08-21T00:45:33;20.77;79.90
36818;DHT22;22761;51.542;16.450;2022-08-21T00:48:00;20.78;80.47
36818;DHT22;22761;51.542;16.450;2022-08-21T00:50:32;20.75;80.16
36818;DHT22;22761;51.542;16.450;2022-08-21T00:53:00;20.75;80.11
36818;DHT22;22761;51.542;16.450;2022-08-21T00:55:29;20.75;79.98
36818;DHT22;22761;51.542;16.450;2022-08-21T00:58:00;20.72;80.29
36818;DHT22;22761;51.542;16.450;2022-08-21T01:00:32;20.70;79.88
36818;DHT22;22761;51.542;16.450;2022-08-21T01:03:04;20.71;79.48
36818;DHT22;22761;51.542;16.450;2022-08-21T01:05:32;20.62;79.99
36818;DHT22;22761;51.542;16.450;2022-08-21T01:07:59;20.61;80.55
36818;DHT22;22761;51.542;16.450;2022-08-21T01:10:26;20.60;80.63
36818;DHT22;22761;51.542;16.450;2022-08-21T01:12:55;20.58;80.30
36818;DHT22;22761;51.542;16.450;2022-08-21T01:15:29;20.61;80.13
36818;DHT22;22761;51.542;16.450;2022-08-21T01:17:55;20.58;80.46
36818;DHT22;22761;51.542;16.450;2022-08-21T01:20:22;20.55;80.33
36818;DHT22;22761;51.542;16.450;2022-08-21T01:22:50;20.55;80.60
36818;DHT22;22761;51.542;16.450;2022-08-21T01:25:18;20.55;80.60
36818;DHT22;22761;51.542;16.450;2022-08-21T01:27:48;20.51;80.66
36818;DHT22;22761;51.542;16.450;2022-08-21T01:30:24;20.51;80.59
36818;DHT22;22761;51.542;16.450;2022-08-21T01:32:52;20.43;80.69
36818;DHT22;22761;51.542;16.450;2022-08-21T01:35:20;20.44;80.67
36818;DHT22;22761;51.542;16.450;2022-08-21T01:37:48;20.43;80.54
36818;DHT22;22761;51.542;16.450;2022-08-21T01:40:17;20.40;80.51
36818;DHT22;22761;51.542;16.450;2022-08-21T01:42:45;20.36;80.95
36818;DHT22;22761;51.542;16.450;2022-08-21T01:45:14;20.34;81.47
36818;DHT22;22761;51.542;16.450;2022-08-21T01:47:42;20.33;81.28
36818;DHT22;22761;51.542;16.450;2022-08-21T01:50:13;20.36;80.93
36818;DHT22;22761;51.542;16.450;2022-08-21T01:52:42;20.30;80.75
36818;DHT22;22761;51.542;16.450;2022-08-21T01:55:11;20.33;81.12
36818;DHT22;22761;51.542;16.450;2022-08-21T01:57:38;20.37;81.17
36818;DHT22;22761;51.542;16.450;2022-08-21T02:00:09;20.34;81.09
36818;DHT22;22761;51.542;16.450;2022-08-21T02:02:41;20.37;81.09
36818;DHT22;22761;51.542;16.450;2022-08-21T02:05:11;20.40;80.47
36818;DHT22;22761;51.542;16.450;2022-08-21T02:07:46;20.39;80.06
36818;DHT22;22761;51.542;16.450;2022-08-21T02:10:27;20.34;80.85
36818;DHT22;22761;51.542;16.450;2022-08-21T02:12:46;20.33;80.84
36818;DHT22;22761;51.542;16.450;2022-08-21T02:15:13;20.32;80.86
36818;DHT22;22761;51.542;16.450;2022-08-21T02:17:45;20.30;80.81
36818;DHT22;22761;51.542;16.450;2022-08-21T02:20:18;20.27;81.15
36818;DHT22;22761;51.542;16.450;2022-08-21T02:22:45;20.25;81.06
36818;DHT22;22761;51.542;16.450;2022-08-21T02:25:12;20.27;81.10
36818;DHT22;22761;51.542;16.450;2022-08-21T02:27:43;20.23;81.11
36818;DHT22;22761;51.542;16.450;2022-08-21T02:30:21;20.27;81.61
36818;DHT22;22761;51.542;16.450;2022-08-21T02:32:48;20.27;80.72
36818;DHT22;22761;51.542;16.450;2022-08-21T02:35:15;20.26;80.87
36818;DHT22;22761;51.542;16.450;2022-08-21T02:37:50;20.26;81.12
36818;DHT22;22761;51.542;16.450;2022-08-21T02:40:22;20.22;81.01
36818;DHT22;22761;51.542;16.450;2022-08-21T02:42:50;20.22;81.17
36818;DHT22;22761;51.542;16.450;2022-08-21T02:45:18;20.25;81.35
36818;DHT22;22761;51.542;16.450;2022-08-21T02:47:54;20.29;81.46
36818;DHT22;22761;51.542;16.450;2022-08-21T02:50:25;20.30;81.22
36818;DHT22;22761;51.542;16.450;2022-08-21T02:52:54;20.36;81.40
36818;DHT22;22761;51.542;16.450;2022-08-21T02:55:25;20.40;81.03
36818;DHT22;22761;51.542;16.450;2022-08-21T02:57:54;20.42;80.80
36818;DHT22;22761;51.542;16.450;2022-08-21T03:00:23;20.44;80.54
36818;DHT22;22761;51.542;16.450;2022-08-21T03:02:51;20.46;80.51
36818;DHT22;22761;51.542;16.450;2022-08-21T03:05:20;20.51;80.35
36818;DHT22;22761;51.542;16.450;2022-08-21T03:07:48;20.54;80.04
36818;DHT22;22761;51.542;16.450;2022-08-21T03:10:16;20.50;80.15
36818;DHT22;22761;51.542;16.450;2022-08-21T03:12:43;20.46;80.04
36818;DHT22;22761;51.542;16.450;2022-08-21T03:15:13;20.44;80.16
36818;DHT22;22761;51.542;16.450;2022-08-21T03:17:41;20.42;80.05
36818;DHT22;22761;51.542;16.450;2022-08-21T03:20:09;20.36;80.15
36818;DHT22;22761;51.542;16.450;2022-08-21T03:22:37;20.37;79.78
36818;DHT22;22761;51.542;16.450;2022-08-21T03:25:05;20.33;80.20
36818;DHT22;22761;51.542;16.450;2022-08-21T03:27:34;20.29;80.09
36818;DHT22;22761;51.542;16.450;2022-08-21T03:30:04;20.27;80.15
36818;DHT22;22761;51.542;16.450;2022-08-21T03:32:32;20.27;80.13
36818;DHT22;22761;51.542;16.450;2022-08-21T03:34:59;20.27;80.17
36818;DHT22;22761;51.542;16.450;2022-08-21T03:37:27;20.23;80.43
36818;DHT22;22761;51.542;16.450;2022-08-21T03:39:54;20.22;80.34
36818;DHT22;22761;51.542;16.450;2022-08-21T03:42:22;20.20;79.95
36818;DHT22;22761;51.542;16.450;2022-08-21T03:44:50;20.17;80.56
36818;DHT22;22761;51.542;16.450;2022-08-21T03:47:17;20.13;80.77
36818;DHT22;22761;51.542;16.450;2022-08-21T03:49:44;20.15;81.14
36818;DHT22;22761;51.542;16.450;2022-08-21T03:52:12;20.13;80.80
36818;DHT22;22761;51.542;16.450;2022-08-21T03:54:39;20.13;81.36
36818;DHT22;22761;51.542;16.450;2022-08-21T03:57:08;20.13;81.22
36818;DHT22;22761;51.542;16.450;2022-08-21T03:59:36;20.17;81.68
36818;DHT22;22761;51.542;16.450;2022-08-21T04:02:06;20.16;81.76
36818;DHT22;22761;51.542;16.450;2022-08-21T04:04:34;20.20;81.57
36818;DHT22;22761;51.542;16.450;2022-08-21T04:07:03;20.23;81.41
36818;DHT22;22761;51.542;16.450;2022-08-21T04:09:30;20.22;81.51
36818;DHT22;22761;51.542;16.450;2022-08-21T04:11:58;20.23;81.69
36818;DHT22;22761;51.542;16.450;2022-08-21T04:14:27;20.23;81.19
36818;DHT22;22761;51.542;16.450;2022-08-21T04:16:54;20.20;81.64
36818;DHT22;22761;51.542;16.450;2022-08-21T04:19:21;20.16;81.70
36818;DHT22;22761;51.542;16.450;2022-08-21T04:21:48;20.13;81.92
36818;DHT22;22761;51.542;16.450;2022-08-21T04:24:16;20.11;82.31
36818;DHT22;22761;51.542;16.450;2022-08-21T04:26:43;20.11;82.44
36818;DHT22;22761;51.542;16.450;2022-08-21T04:29:10;20.12;82.57
36818;DHT22;22761;51.542;16.450;2022-08-21T04:31:37;20.13;82.79
36818;DHT22;22761;51.542;16.450;2022-08-21T04:34:05;20.13;83.03
36818;DHT22;22761;51.542;16.450;2022-08-21T04:36:33;20.13;83.10
36818;DHT22;22761;51.542;16.450;2022-08-21T04:39:00;20.15;83.16
36818;DHT22;22761;51.542;16.450;2022-08-21T04:41:28;20.16;83.03
36818;DHT22;22761;51.542;16.450;2022-08-21T04:43:56;20.17;83.09
36818;DHT22;22761;51.542;16.450;2022-08-21T04:46:23;20.17;83.14
36818;DHT22;22761;51.542;16.450;2022-08-21T04:48:51;20.13;83.16
36818;DHT22;22761;51.542;16.450;2022-08-21T04:51:22;20.16;83.18
36818;DHT22;22761;51.542;16.450;2022-08-21T04:54:06;20.15;83.09
36818;DHT22;22761;51.542;16.450;2022-08-21T04:56:51;20.13;83.27
36818;DHT22;22761;51.542;16.450;2022-08-21T04:59:19;20.13;83.35
36818;DHT22;22761;51.542;16.450;2022-08-21T05:01:47;20.12;83.18
36818;DHT22;22761;51.542;16.450;2022-08-21T05:04:20;20.11;83.12
36818;DHT22;22761;51.542;16.450;2022-08-21T05:06:48;20.06;83.10
36818;DHT22;22761;51.542;16.450;2022-08-21T05:09:17;20.09;83.02
36818;DHT22;22761;51.542;16.450;2022-08-21T05:11:45;20.08;83.17
36818;DHT22;22761;51.542;16.450;2022-08-21T05:14:13;20.05;83.06
36818;DHT22;22761;51.542;16.450;2022-08-21T05:16:41;19.99;83.08
36818;DHT22;22761;51.542;16.450;2022-08-21T05:19:19;19.99;83.09
36818;DHT22;22761;51.542;16.450;2022-08-21T05:21:46;19.98;83.04
36818;DHT22;22761;51.542;16.450;2022-08-21T05:24:16;19.98;82.90
36818;DHT22;22761;51.542;16.450;2022-08-21T05:26:44;19.95;82.77
36818;DHT22;22761;51.542;16.450;2022-08-21T05:29:11;19.95;82.42
36818;DHT22;22761;51.542;16.450;2022-08-21T05:31:38;19.93;82.66
36818;DHT22;22761;51.542;16.450;2022-08-21T05:34:05;19.95;82.81
36818;DHT22;22761;51.542;16.450;2022-08-21T05:36:32;19.91;82.80
36818;DHT22;22761;51.542;16.450;2022-08-21T05:39:00;19.91;82.50
36818;DHT22;22761;51.542;16.450;2022-08-21T05:41:27;19.92;82.24
36818;DHT22;22761;51.542;16.450;2022-08-21T05:43:54;19.91;82.20
36818;DHT22;22761;51.542;16.450;2022-08-21T05:46:21;19.88;82.00
36818;DHT22;22761;51.542;16.450;2022-08-21T05:48:48;19.86;82.14
36818;DHT22;22761;51.542;16.450;2022-08-21T05:51:16;19.86;82.12
36818;DHT22;22761;51.542;16.450;2022-08-21T05:53:44;19.88;81.95
36818;DHT22;22761;51.542;16.450;2022-08-21T05:56:12;19.88;81.26
36818;DHT22;22761;51.542;16.450;2022-08-21T05:58:40;19.84;81.33
36818;DHT22;22761;51.542;16.450;2022-08-21T06:01:07;19.81;81.34
36818;DHT22;22761;51.542;16.450;2022-08-21T06:03:38;19.84;81.12
36818;DHT22;22761;51.542;16.450;2022-08-21T06:06:06;19.82;81.37
36818;DHT22;22761;51.542;16.450;2022-08-21T06:08:33;19.81;81.30
36818;DHT22;22761;51.542;16.450;2022-08-21T06:11:02;19.80;81.04
36818;DHT22;22761;51.542;16.450;2022-08-21T06:13:29;19.77;80.57
36818;DHT22;22761;51.542;16.450;2022-08-21T06:16:10;19.71;80.25
36818;DHT22;22761;51.542;16.450;2022-08-21T06:18:39;19.64;80.08
36818;DHT22;22761;51.542;16.450;2022-08-21T06:21:07;19.57;79.71
36818;DHT22;22761;51.542;16.450;2022-08-21T06:23:34;19.46;80.24
36818;DHT22;22761;51.542;16.450;2022-08-21T06:26:05;19.42;80.41
36818;DHT22;22761;51.542;16.450;2022-08-21T06:28:33;19.37;80.30
36818;DHT22;22761;51.542;16.450;2022-08-21T06:31:01;19.27;79.47
36818;DHT22;22761;51.542;16.450;2022-08-21T06:33:30;19.22;79.98
36818;DHT22;22761;51.542;16.450;2022-08-21T06:35:58;19.16;79.77
36818;DHT22;22761;51.542;16.450;2022-08-21T06:38:25;19.05;80.05
36818;DHT22;22761;51.542;16.450;2022-08-21T06:40:52;18.99;79.69
36818;DHT22;22761;51.542;16.450;2022-08-21T06:43:21;18.90;79.77
36818;DHT22;22761;51.542;16.450;2022-08-21T06:45:48;18.82;80.24
36818;DHT22;22761;51.542;16.450;2022-08-21T06:48:17;18.78;80.49
36818;DHT22;22761;51.542;16.450;2022-08-21T06:50:43;18.73;80.23
36818;DHT22;22761;51.542;16.450;2022-08-21T06:53:12;18.66;79.95
36818;DHT22;22761;51.542;16.450;2022-08-21T06:55:40;18.60;79.82
36818;DHT22;22761;51.542;16.450;2022-08-21T06:58:09;18.53;80.07
36818;DHT22;22761;51.542;16.450;2022-08-21T07:00:40;18.52;80.32
36818;DHT22;22761;51.542;16.450;2022-08-21T07:03:17;18.46;80.10
36818;DHT22;22761;51.542;16.450;2022-08-21T07:05:44;18.37;80.30
36818;DHT22;22761;51.542;16.450;2022-08-21T07:08:11;18.35;80.94
36818;DHT22;22761;51.542;16.450;2022-08-21T07:10:39;18.30;81.06
36818;DHT22;22761;51.542;16.450;2022-08-21T07:13:06;18.32;81.19
36818;DHT22;22761;51.542;16.450;2022-08-21T07:15:34;18.26;80.68
36818;DHT22;22761;51.542;16.450;2022-08-21T07:18:01;18.23;80.87
36818;DHT22;22761;51.542;16.450;2022-08-21T07:20:30;18.23;81.40
36818;DHT22;22761;51.542;16.450;2022-08-21T07:23:02;18.22;81.38
36818;DHT22;22761;51.542;16.450;2022-08-21T07:25:29;18.22;81.60
36818;DHT22;22761;51.542;16.450;2022-08-21T07:27:56;18.22;81.65
36818;DHT22;22761;51.542;16.450;2022-08-21T07:30:24;18.20;81.45
36818;DHT22;22761;51.542;16.450;2022-08-21T07:32:52;18.19;81.70
36818;DHT22;22761;51.542;16.450;2022-08-21T07:35:22;18.19;82.00
36818;DHT22;22761;51.542;16.450;2022-08-21T07:37:52;18.18;81.77
36818;DHT22;22761;51.542;16.450;2022-08-21T07:40:20;18.19;82.07
36818;DHT22;22761;51.542;16.450;2022-08-21T07:42:48;18.16;82.18
36818;DHT22;22761;51.542;16.450;2022-08-21T07:45:20;18.18;81.15
36818;DHT22;22761;51.542;16.450;2022-08-21T07:47:48;18.13;80.77
36818;DHT22;22761;51.542;16.450;2022-08-21T07:50:15;18.09;80.63
36818;DHT22;22761;51.542;16.450;2022-08-21T07:52:43;18.01;79.82
36818;DHT22;22761;51.542;16.450;2022-08-21T07:55:13;17.94;79.81
36818;DHT22;22761;51.542;16.450;2022-08-21T07:57:41;17.91;80.37
36818;DHT22;22761;51.542;16.450;2022-08-21T08:00:15;17.87;80.49
36818;DHT22;22761;51.542;16.450;2022-08-21T08:02:47;17.84;80.06
36818;DHT22;22761;51.542;16.450;2022-08-21T08:05:19;17.80;80.42
36818;DHT22;22761;51.542;16.450;2022-08-21T08:07:47;17.74;80.41
36818;DHT22;22761;51.542;16.450;2022-08-21T08:10:14;17.73;80.39
36818;DHT22;22761;51.542;16.450;2022-08-21T08:12:46;17.70;80.75
36818;DHT22;22761;51.542;16.450;2022-08-21T08:15:21;17.70;80.85
36818;DHT22;22761;51.542;16.450;2022-08-21T08:17:51;17.70;80.81
36818;DHT22;22761;51.542;16.450;2022-08-21T08:20:19;17.69;82.31
36818;DHT22;22761;51.542;16.450;2022-08-21T08:22:46;17.76;81.84
36818;DHT22;22761;51.542;16.450;2022-08-21T08:25:15;17.80;82.25
36818;DHT22;22761;51.542;16.450;2022-08-21T08:27:43;17.83;82.12
36818;DHT22;22761;51.542;16.450;2022-08-21T08:30:14;17.88;81.93
36818;DHT22;22761;51.542;16.450;2022-08-21T08:32:41;17.87;80.50
36818;DHT22;22761;51.542;16.450;2022-08-21T08:35:09;17.81;80.83
36818;DHT22;22761;51.542;16.450;2022-08-21T08:37:38;17.78;80.37
36818;DHT22;22761;51.542;16.450;2022-08-21T08:40:18;17.71;80.63
36818;DHT22;22761;51.542;16.450;2022-08-21T08:42:41;17.64;80.95
36818;DHT22;22761;51.542;16.450;2022-08-21T08:45:18;17.64;81.50
36818;DHT22;22761;51.542;16.450;2022-08-21T08:47:51;17.64;81.09
36818;DHT22;22761;51.542;16.450;2022-08-21T08:50:24;17.62;80.71
36818;DHT22;22761;51.542;16.450;2022-08-21T08:52:57;17.56;81.28
36818;DHT22;22761;51.542;16.450;2022-08-21T08:57:59;17.50;82.09
36818;DHT22;22761;51.542;16.450;2022-08-21T09:00:26;17.53;82.49
36818;DHT22;22761;51.542;16.450;2022-08-21T09:03:00;17.53;82.09
36818;DHT22;22761;51.542;16.450;2022-08-21T09:26:06;17.71;83.07
36818;DHT22;22761;51.542;16.450;2022-08-21T09:28:36;17.78;82.99
36818;DHT22;22761;51.542;16.450;2022-08-21T09:31:16;17.85;82.64
36818;DHT22;22761;51.542;16.450;2022-08-21T09:33:37;17.87;82.66
36818;DHT22;22761;51.542;16.450;2022-08-21T09:36:04;17.88;82.64
36818;DHT22;22761;51.542;16.450;2022-08-21T09:38:36;17.92;82.90
36818;DHT22;22761;51.542;16.450;2022-08-21T09:41:08;18.00;82.84
36818;DHT22;22761;51.542;16.450;2022-08-21T09:43:37;18.01;82.71
36818;DHT22;22761;51.542;16.450;2022-08-21T09:46:20;18.02;82.89
36818;DHT22;22761;51.542;16.450;2022-08-21T09:48:52;18.07;82.74
36818;DHT22;22761;51.542;16.450;2022-08-21T09:51:34;18.04;82.89
36818;DHT22;22761;51.542;16.450;2022-08-21T09:54:12;18.11;83.22
36818;DHT22;22761;51.542;16.450;2022-08-21T09:59:42;18.19;83.13
36818;DHT22;22761;51.542;16.450;2022-08-21T10:02:33;18.25;82.50
36818;DHT22;22761;51.542;16.450;2022-08-21T10:05:24;18.29;82.15
36818;DHT22;22761;51.542;16.450;2022-08-21T10:07:47;18.32;82.19
36818;DHT22;22761;51.542;16.450;2022-08-21T10:10:30;18.33;81.54
36818;DHT22;22761;51.542;16.450;2022-08-21T10:18:43;18.36;81.20
36818;DHT22;22761;51.542;16.450;2022-08-21T10:21:38;18.39;81.07
36818;DHT22;22761;51.542;16.450;2022-08-21T10:26:57;18.54;81.45
36818;DHT22;22761;51.542;16.450;2022-08-21T10:29:55;18.59;80.65
36818;DHT22;22761;51.542;16.450;2022-08-21T10:35:17;18.74;78.32
36818;DHT22;22761;51.542;16.450;2022-08-21T10:40:55;18.74;79.46
36818;DHT22;22761;51.542;16.450;2022-08-21T10:43:52;18.75;79.73
36818;DHT22;22761;51.542;16.450;2022-08-21T10:57:58;19.44;80.44
36818;DHT22;22761;51.542;16.450;2022-08-21T11:00:33;19.60;79.50
36818;DHT22;22761;51.542;16.450;2022-08-21T11:05:42;19.80;78.95
36818;DHT22;22761;51.542;16.450;2022-08-21T11:08:12;19.89;79.03
36818;DHT22;22761;51.542;16.450;2022-08-21T11:10:52;19.98;78.55
36818;DHT22;22761;51.542;16.450;2022-08-21T11:13:55;20.04;77.87
36818;DHT22;22761;51.542;16.450;2022-08-21T11:16:42;20.04;76.78
36818;DHT22;22761;51.542;16.450;2022-08-21T11:19:27;20.04;76.40
36818;DHT22;22761;51.542;16.450;2022-08-21T11:25:21;19.84;77.23
36818;DHT22;22761;51.542;16.450;2022-08-21T11:28:03;19.78;76.59
36818;DHT22;22761;51.542;16.450;2022-08-21T11:36:02;19.47;74.72
36818;DHT22;22761;51.542;16.450;2022-08-21T11:38:44;19.32;75.49
36818;DHT22;22761;51.542;16.450;2022-08-21T11:44:01;19.16;75.50
36818;DHT22;22761;51.542;16.450;2022-08-21T11:46:54;19.12;75.58
36818;DHT22;22761;51.542;16.450;2022-08-21T11:49:39;19.08;75.60
36818;DHT22;22761;51.542;16.450;2022-08-21T11:52:26;19.02;77.00
36818;DHT22;22761;51.542;16.450;2022-08-21T11:57:55;19.10;77.56
36818;DHT22;22761;51.542;16.450;2022-08-21T12:03:37;19.23;77.84
36818;DHT22;22761;51.542;16.450;2022-08-21T12:05:54;19.33;78.32
36818;DHT22;22761;51.542;16.450;2022-08-21T12:08:33;19.40;78.92
36818;DHT22;22761;51.542;16.450;2022-08-21T12:16:44;19.70;79.20
36818;DHT22;22761;51.542;16.450;2022-08-21T12:24:43;20.01;76.91
36818;DHT22;22761;51.542;16.450;2022-08-21T12:27:28;20.08;76.19
36818;DHT22;22761;51.542;16.450;2022-08-21T12:29:57;20.11;76.38
36818;DHT22;22761;51.542;16.450;2022-08-21T12:35:20;20.12;76.44
36818;DHT22;22761;51.542;16.450;2022-08-21T12:37:59;20.05;76.46
36818;DHT22;22761;51.542;16.450;2022-08-21T12:40:42;20.05;75.58
36818;DHT22;22761;51.542;16.450;2022-08-21T12:43:01;19.99;76.16
36818;DHT22;22761;51.542;16.450;2022-08-21T12:45:33;19.98;75.94
36818;DHT22;22761;51.542;16.450;2022-08-21T12:50:45;19.97;76.09
36818;DHT22;22761;51.542;16.450;2022-08-21T12:56:13;19.91;76.43
36818;DHT22;22761;51.542;16.450;2022-08-21T12:58:48;19.93;76.46
36818;DHT22;22761;51.542;16.450;2022-08-21T13:01:28;19.95;75.82
36818;DHT22;22761;51.542;16.450;2022-08-21T13:04:01;19.99;75.29
36818;DHT22;22761;51.542;16.450;2022-08-21T13:06:36;19.98;74.60
36818;DHT22;22761;51.542;16.450;2022-08-21T13:09:04;19.99;73.69
36818;DHT22;22761;51.542;16.450;2022-08-21T13:11:33;19.95;74.09
36818;DHT22;22761;51.542;16.450;2022-08-21T13:14:03;19.91;74.36
36818;DHT22;22761;51.542;16.450;2022-08-21T13:16:31;19.91;73.62
36818;DHT22;22761;51.542;16.450;2022-08-21T13:19:06;19.88;74.33
36818;DHT22;22761;51.542;16.450;2022-08-21T13:21:40;19.88;74.28
36818;DHT22;22761;51.542;16.450;2022-08-21T13:24:17;19.86;74.21
36818;DHT22;22761;51.542;16.450;2022-08-21T13:26:47;19.86;75.06
36818;DHT22;22761;51.542;16.450;2022-08-21T13:29:18;19.91;74.45
36818;DHT22;22761;51.542;16.450;2022-08-21T13:32:00;19.97;74.84
36818;DHT22;22761;51.542;16.450;2022-08-21T13:34:30;20.01;75.59
36818;DHT22;22761;51.542;16.450;2022-08-21T13:37:02;20.04;75.49
36818;DHT22;22761;51.542;16.450;2022-08-21T13:39:30;20.11;75.45
36818;DHT22;22761;51.542;16.450;2022-08-21T13:42:00;20.16;75.45
36818;DHT22;22761;51.542;16.450;2022-08-21T13:44:42;20.20;75.24
36818;DHT22;22761;51.542;16.450;2022-08-21T13:47:07;20.23;76.29
36818;DHT22;22761;51.542;16.450;2022-08-21T13:49:42;20.25;76.21
36818;DHT22;22761;51.542;16.450;2022-08-21T13:52:23;20.33;76.71
36818;DHT22;22761;51.542;16.450;2022-08-21T13:55:06;20.39;76.69
36818;DHT22;22761;51.542;16.450;2022-08-21T13:57:33;20.44;76.91
36818;DHT22;22761;51.542;16.450;2022-08-21T14:00:25;20.44;77.37
36818;DHT22;22761;51.542;16.450;2022-08-21T14:02:52;20.50;77.39
36818;DHT22;22761;51.542;16.450;2022-08-21T14:05:29;20.54;77.48
36818;DHT22;22761;51.542;16.450;2022-08-21T14:08:11;20.61;77.66
36818;DHT22;22761;51.542;16.450;2022-08-21T14:10:50;20.58;77.64
36818;DHT22;22761;51.542;16.450;2022-08-21T14:13:49;20.65;77.69
36818;DHT22;22761;51.542;16.450;2022-08-21T14:16:24;20.72;78.05
36818;DHT22;22761;51.542;16.450;2022-08-21T14:21:41;20.89;78.10
36818;DHT22;22761;51.542;16.450;2022-08-21T14:24:28;20.95;77.48
36818;DHT22;22761;51.542;16.450;2022-08-21T14:27:08;21.02;76.59
36818;DHT22;22761;51.542;16.450;2022-08-21T14:29:40;20.99;76.43
36818;DHT22;22761;51.542;16.450;2022-08-21T14:32:22;20.99;76.80
36818;DHT22;22761;51.542;16.450;2022-08-21T14:34:50;21.03;76.25
36818;DHT22;22761;51.542;16.450;2022-08-21T14:37:17;21.03;76.72
36818;DHT22;22761;51.542;16.450;2022-08-21T14:39:48;21.03;76.72
36818;DHT22;22761;51.542;16.450;2022-08-21T14:42:18;21.02;76.99
36818;DHT22;22761;51.542;16.450;2022-08-21T14:44:46;21.01;77.41
36818;DHT22;22761;51.542;16.450;2022-08-21T14:47:14;20.99;77.35
36818;DHT22;22761;51.542;16.450;2022-08-21T14:49:44;20.96;77.55
36818;DHT22;22761;51.542;16.450;2022-08-21T14:52:14;20.95;77.41
36818;DHT22;22761;51.542;16.450;2022-08-21T14:54:41;20.95;77.54
36818;DHT22;22761;51.542;16.450;2022-08-21T14:57:10;20.94;77.60
36818;DHT22;22761;51.542;16.450;2022-08-21T14:59:39;20.88;78.06
36818;DHT22;22761;51.542;16.450;2022-08-21T15:02:08;20.87;78.28
36818;DHT22;22761;51.542;16.450;2022-08-21T15:04:36;20.84;78.11
36818;DHT22;22761;51.542;16.450;2022-08-21T15:07:03;20.81;78.46
36818;DHT22;22761;51.542;16.450;2022-08-21T15:09:33;20.75;78.64
36818;DHT22;22761;51.542;16.450;2022-08-21T15:12:02;20.70;78.84
36818;DHT22;22761;51.542;16.450;2022-08-21T15:14:33;20.68;78.82
36818;DHT22;22761;51.542;16.450;2022-08-21T15:17:02;20.61;78.97
36818;DHT22;22761;51.542;16.450;2022-08-21T15:19:31;20.62;78.85
36818;DHT22;22761;51.542;16.450;2022-08-21T15:21:58;20.58;78.62
36818;DHT22;22761;51.542;16.450;2022-08-21T15:24:26;20.54;78.91
36818;DHT22;22761;51.542;16.450;2022-08-21T15:26:55;20.48;78.47
36818;DHT22;22761;51.542;16.450;2022-08-21T15:29:23;20.43;78.77
36818;DHT22;22761;51.542;16.450;2022-08-21T15:31:54;20.40;78.63
36818;DHT22;22761;51.542;16.450;2022-08-21T15:34:23;20.36;78.28
36818;DHT22;22761;51.542;16.450;2022-08-21T15:36:51;20.34;78.55
36818;DHT22;22761;51.542;16.450;2022-08-21T15:39:18;20.34;77.58
36818;DHT22;22761;51.542;16.450;2022-08-21T15:41:45;20.33;76.95
36818;DHT22;22761;51.542;16.450;2022-08-21T15:44:13;20.29;75.95
36818;DHT22;22761;51.542;16.450;2022-08-21T15:46:42;20.17;76.10
36818;DHT22;22761;51.542;16.450;2022-08-21T15:49:11;20.11;76.46
36818;DHT22;22761;51.542;16.450;2022-08-21T15:51:38;20.05;77.28
36818;DHT22;22761;51.542;16.450;2022-08-21T15:54:06;19.98;77.44
36818;DHT22;22761;51.542;16.450;2022-08-21T15:56:37;19.93;77.67
36818;DHT22;22761;51.542;16.450;2022-08-21T15:59:12;19.89;77.18
36818;DHT22;22761;51.542;16.450;2022-08-21T16:01:38;19.82;77.63
36818;DHT22;22761;51.542;16.450;2022-08-21T16:04:07;19.75;77.62
36818;DHT22;22761;51.542;16.450;2022-08-21T16:06:34;19.74;77.89
36818;DHT22;22761;51.542;16.450;2022-08-21T16:09:02;19.70;77.76
36818;DHT22;22761;51.542;16.450;2022-08-21T16:11:29;19.67;77.84
36818;DHT22;22761;51.542;16.450;2022-08-21T16:13:56;19.65;78.46
36818;DHT22;22761;51.542;16.450;2022-08-21T16:16:24;19.64;78.30
36818;DHT22;22761;51.542;16.450;2022-08-21T16:18:53;19.58;78.61
36818;DHT22;22761;51.542;16.450;2022-08-21T16:21:20;19.57;78.85
36818;DHT22;22761;51.542;16.450;2022-08-21T16:23:49;19.53;79.11
36818;DHT22;22761;51.542;16.450;2022-08-21T16:26:16;19.49;78.77
36818;DHT22;22761;51.542;16.450;2022-08-21T16:28:46;19.47;79.61
36818;DHT22;22761;51.542;16.450;2022-08-21T16:31:16;19.49;80.02
36818;DHT22;22761;51.542;16.450;2022-08-21T16:33:48;19.53;79.99
36818;DHT22;22761;51.542;16.450;2022-08-21T16:36:16;19.54;80.05
36818;DHT22;22761;51.542;16.450;2022-08-21T16:38:55;19.58;80.00
36818;DHT22;22761;51.542;16.450;2022-08-21T16:41:24;19.58;79.94
36818;DHT22;22761;51.542;16.450;2022-08-21T16:43:53;19.64;79.61
36818;DHT22;22761;51.542;16.450;2022-08-21T16:46:21;19.64;79.59
36818;DHT22;22761;51.542;16.450;2022-08-21T16:48:48;19.67;79.55
36818;DHT22;22761;51.542;16.450;2022-08-21T16:51:16;19.70;79.43
36818;DHT22;22761;51.542;16.450;2022-08-21T16:53:44;19.71;79.28
36818;DHT22;22761;51.542;16.450;2022-08-21T16:56:13;19.74;79.75
36818;DHT22;22761;51.542;16.450;2022-08-21T16:58:46;19.77;79.57
36818;DHT22;22761;51.542;16.450;2022-08-21T17:01:17;19.82;79.68
36818;DHT22;22761;51.542;16.450;2022-08-21T17:03:48;19.85;79.90
36818;DHT22;22761;51.542;16.450;2022-08-21T17:06:19;19.91;79.49
36818;DHT22;22761;51.542;16.450;2022-08-21T17:08:47;19.93;79.49
36818;DHT22;22761;51.542;16.450;2022-08-21T17:11:22;19.98;79.24